Aérodrome :
LOGIN :

S'inscrire | Disclaimer

   EN    FR    IT 

 










Légende :    VFR   VFR Marginal   IFR   IFR Intensif   IFR Très Intensif
Visi : 
Plafond : 
>= 8 km
>= 3000ft
5 à 8 km
1000 à 3000 ft
1500m à 5 km
500 à 1000 ft
800 à 1500m
200 à 500 ft
< 800m
< 200 ft
Symboles :   Orages  Brouillard  Fortes neiges  Fortes précipitations  Vent > 20 kt
SIGMETs :   Divers  Orages  Givrage  Turbulence  Onde Orograph.  Cendres Volcan.







- Altitude de l'aérodrome : 538 ft
- Code IATA : TNF
- Voir les cartes d'approche


LFPN - Toussus Le Noble

DERNIER METAR :
  • 181530Z AUTO 26008KT 230V310 9999 BKN035 BKN041 24/15 Q1023 NOSIG

METARs EXPIRÉS :
  • 181500Z AUTO 27009KT 230V310 9999 SCT034 BKN041 24/15 Q1023 NOSIG
  • 181430Z AUTO 27007KT 230V310 9999 BKN031 OVC041 23/15 Q1023 NOSIG
  • 181400Z AUTO 27008KT 230V300 9999 SCT028 BKN044 23/15 Q1023 NOSIG
  • 181330Z AUTO 26007KT 240V300 9999 BKN028 BKN034 OVC042 22/15 Q1023 NOSIG
  • 181300Z AUTO 27010KT 230V310 9999 FEW027 BKN040 OVC046 22/15 Q1023 NOSIG

TAF TAF LFPN
Valide du 18 à 15h jusqu'au 19 à 00h UTC


181400Z 1815/1824 24005KT 9999 BKN030
BECMG 1818/1821 30005KT 9999 SCT035
ATIS : +33 1 39 56 54 70
Pas de NOTAMs connus pour ce terrain.



MET'MAP, la Météo Aéronautique d'un coup d'oeil ! - Copyright ORBIFLY Décembre 2007 - Disclaimer

ORBIFLY MET'MAP TEAM :

Programmation & Développement : Alexandra Zaïnal
Conception & Développement : Baudouin d'Aumeries
Co-Programmation & Développement : Marc-Olivier Méhu
Soutien technique & logistique : Manuel Goepfert

Contact : metmap@orbifly.com




SOURCES & CREDITS :

   NOAA